Terminal Aerodrome Forecast
Issued by NWS Wilmington, NC

Home | Current Version | Previous Version | Text Only | Print | Product List | Glossary On
Versions: 1 2 3 4 5 6 7 8 9 10 11 12 13 14 15 16
000
FTUS42 KILM 220500 CCA
TAFILM
TAF COR
KILM 220554Z 2206/2306 03008KT 5SM -RA BR BKN008 OVC012
      TEMPO 2206/2208 3SM RA BR OVC004
     FM221700 36007KT P6SM OVC006
     FM230000 35004KT 2SM BR OVC004=

USA.gov is the U.S. government's official web portal to all federal, state and local government web resources and services.